Time;durP1;ratioP1;P1;durP2;ratioP2;P2;SDS_P1;SDS_P2;PMS_P1;PMS_P2;Temp;Humidity;BMP_temperature;BMP_pressure;BME280_temperature;BME280_humidity;BME280_pressure;Samples;Min_cycle;Max_cycle;Signal;HPM_P1;HPM_P2
2022/05/09 00:00:16;;;;;;;14.85;7.72;;;12.50;99.90;;;;;;5069362;28;20024;-54
2022/05/09 00:02:42;;;;;;;16.48;6.88;;;12.50;99.90;;;;;;5070313;28;20082;-54
2022/05/09 00:05:10;;;;;;;21.05;7.15;;;12.60;99.90;;;;;;5070815;28;20029;-54
2022/05/09 00:07:35;;;;;;;14.75;7.18;;;12.60;99.90;;;;;;5070328;28;20029;-53
2022/05/09 00:10:01;;;;;;;14.55;6.55;;;12.60;99.90;;;;;;5070935;28;20081;-53
2022/05/09 00:12:31;;;;;;;16.63;7.30;;;12.60;99.90;;;;;;5071470;28;20502;-54
2022/05/09 00:14:57;;;;;;;19.10;7.43;;;12.60;99.90;;;;;;5071132;28;20094;-54
2022/05/09 00:17:23;;;;;;;19.23;7.65;;;12.60;99.90;;;;;;5070164;28;20041;-54
2022/05/09 00:19:49;;;;;;;17.48;7.50;;;12.60;99.90;;;;;;5070333;28;20405;-54
2022/05/09 00:22:14;;;;;;;16.23;7.45;;;12.60;99.90;;;;;;5071044;28;20029;-54
2022/05/09 00:24:40;;;;;;;13.77;6.97;;;12.60;99.90;;;;;;5070700;28;20028;-54
2022/05/09 00:27:06;;;;;;;18.20;7.55;;;12.50;99.90;;;;;;5070333;28;20079;-54
2022/05/09 00:29:32;;;;;;;17.52;7.53;;;12.50;99.90;;;;;;5071377;28;20056;-54
2022/05/09 00:32:00;;;;;;;18.52;7.97;;;12.60;99.90;;;;;;5075154;28;20040;-54
2022/05/09 00:34:26;;;;;;;18.77;8.32;;;12.40;99.90;;;;;;5073812;28;20048;-54
2022/05/09 00:36:52;;;;;;;16.30;7.85;;;12.40;99.90;;;;;;5072849;28;20296;-55
2022/05/09 00:39:19;;;;;;;17.08;8.52;;;12.40;99.90;;;;;;5074256;28;20497;-55
2022/05/09 00:41:45;;;;;;;17.77;7.95;;;12.40;99.90;;;;;;5074092;28;20070;-53
2022/05/09 00:44:17;;;;;;;20.77;8.23;;;12.10;99.90;;;;;;5072664;28;20260;-54
2022/05/09 00:46:48;;;;;;;20.02;8.68;;;12.10;99.90;;;;;;5072569;28;20059;-55
2022/05/09 00:49:21;;;;;;;23.70;8.40;;;12.00;99.90;;;;;;5074118;28;20024;-56
2022/05/09 00:51:58;;;;;;;16.00;8.32;;;11.80;99.90;;;;;;5073892;28;20043;-54
2022/05/09 00:54:26;;;;;;;17.63;8.35;;;11.70;99.90;;;;;;5073457;28;20039;-53
2022/05/09 00:57:07;;;;;;;18.08;8.75;;;11.70;99.90;;;;;;5074120;28;20141;-53
2022/05/09 00:59:35;;;;;;;14.82;8.23;;;11.70;99.90;;;;;;5074026;28;20081;-54
2022/05/09 01:02:01;;;;;;;17.95;9.10;;;11.80;99.90;;;;;;5074304;28;20370;-53
2022/05/09 01:04:29;;;;;;;17.83;8.27;;;11.80;99.90;;;;;;5073918;28;20032;-53
2022/05/09 01:06:57;;;;;;;17.23;8.05;;;11.70;99.90;;;;;;5074229;28;20052;-53
2022/05/09 01:09:23;;;;;;;20.75;8.85;;;11.60;99.90;;;;;;5074361;28;20343;-54
2022/05/09 01:11:49;;;;;;;18.05;8.60;;;11.60;99.90;;;;;;5073954;28;20072;-54
2022/05/09 01:14:22;;;;;;;20.27;8.80;;;11.70;99.90;;;;;;5073524;28;20524;-54
2022/05/09 01:16:48;;;;;;;17.83;9.10;;;11.70;99.90;;;;;;5073446;28;20111;-53
2022/05/09 01:19:34;;;;;;;19.13;8.80;;;11.70;99.90;;;;;;5073979;28;20096;-53
2022/05/09 01:22:16;;;;;;;16.10;8.43;;;11.60;99.90;;;;;;5074140;28;20016;-53
2022/05/09 01:24:42;;;;;;;14.40;8.47;;;11.50;99.90;;;;;;5074600;28;20521;-53
2022/05/09 01:27:08;;;;;;;21.05;9.27;;;11.50;99.90;;;;;;5074162;28;20024;-54
2022/05/09 01:30:06;;;;;;;19.70;9.82;;;11.60;99.90;;;;;;5073664;28;20036;-54
2022/05/09 01:32:50;;;;;;;17.90;8.82;;;11.60;99.90;;;;;;5074396;28;20040;-53
2022/05/09 01:35:24;;;;;;;17.30;8.82;;;11.40;99.90;;;;;;5073866;28;20117;-54
2022/05/09 01:38:02;;;;;;;25.63;9.02;;;11.50;99.90;;;;;;5073918;28;20060;-53
2022/05/09 01:40:28;;;;;;;17.58;9.50;;;11.40;99.90;;;;;;5074216;28;20025;-53
2022/05/09 01:42:53;;;;;;;26.80;10.20;;;11.50;99.90;;;;;;5073117;28;20086;-53
2022/05/09 01:45:20;;;;;;;20.83;9.77;;;11.40;99.90;;;;;;5074257;28;20066;-53
2022/05/09 01:50:30;;;;;;;15.95;9.43;;;11.40;99.90;;;;;;5073891;28;20082;-53
2022/05/09 01:52:56;;;;;;;19.10;9.50;;;11.40;99.90;;;;;;5074080;28;20012;-54
2022/05/09 01:55:22;;;;;;;20.42;9.73;;;11.50;99.90;;;;;;5073586;28;20092;-54
2022/05/09 01:57:49;;;;;;;19.13;9.82;;;11.50;99.90;;;;;;5073584;28;20082;-53
2022/05/09 02:00:16;;;;;;;20.15;9.55;;;11.40;99.90;;;;;;5074215;28;20520;-53
2022/05/09 02:02:43;;;;;;;21.88;9.70;;;11.30;99.90;;;;;;5073851;28;20052;-53
2022/05/09 02:05:09;;;;;;;21.50;9.32;;;11.30;99.90;;;;;;5073771;28;20025;-54
2022/05/09 02:07:35;;;;;;;18.88;9.25;;;11.30;99.90;;;;;;5073557;28;20031;-54
2022/05/09 02:10:01;;;;;;;18.42;9.15;;;11.30;99.90;;;;;;5073524;28;20020;-53
2022/05/09 02:12:27;;;;;;;15.57;8.75;;;11.30;99.90;;;;;;5073740;28;20403;-54
2022/05/09 02:14:53;;;;;;;18.85;9.13;;;11.30;99.90;;;;;;5073341;28;20039;-54
2022/05/09 02:17:19;;;;;;;21.77;9.88;;;11.40;99.90;;;;;;5073077;28;20220;-53
2022/05/09 02:19:44;;;;;;;17.88;9.40;;;11.40;99.90;;;;;;5073412;28;20109;-53
2022/05/09 02:22:11;;;;;;;19.20;8.50;;;11.30;99.90;;;;;;5073421;28;20113;-53
2022/05/09 02:24:39;;;;;;;21.00;9.13;;;11.40;99.90;;;;;;5073751;28;20024;-53
2022/05/09 02:27:05;;;;;;;16.85;8.75;;;11.30;99.90;;;;;;5074000;28;20021;-53
2022/05/09 02:29:31;;;;;;;23.40;9.13;;;11.30;99.90;;;;;;5073373;28;20028;-54
2022/05/09 02:31:59;;;;;;;21.63;9.73;;;11.20;99.90;;;;;;5073651;28;20033;-54
2022/05/09 02:34:24;;;;;;;24.45;9.88;;;11.10;99.90;;;;;;5073491;28;20062;-53
2022/05/09 02:36:50;;;;;;;21.02;9.23;;;11.10;99.90;;;;;;5073672;28;20029;-55
2022/05/09 02:39:16;;;;;;;22.63;9.70;;;11.10;99.90;;;;;;5073639;28;20153;-53
2022/05/09 02:41:41;;;;;;;19.80;9.20;;;11.20;99.90;;;;;;5073006;28;20073;-54
2022/05/09 02:44:07;;;;;;;27.48;9.07;;;11.00;99.90;;;;;;5073296;28;20028;-53
2022/05/09 02:46:33;;;;;;;18.95;8.77;;;11.00;99.90;;;;;;5073352;28;20031;-54
2022/05/09 02:48:59;;;;;;;36.65;10.73;;;10.90;99.90;;;;;;5073388;28;20029;-53
2022/05/09 02:51:27;;;;;;;21.88;9.80;;;10.90;99.90;;;;;;5073016;28;20052;-54
2022/05/09 02:53:55;;;;;;;19.65;8.95;;;11.00;99.90;;;;;;5072334;28;20039;-53
2022/05/09 02:56:21;;;;;;;19.98;9.52;;;11.00;99.90;;;;;;5072885;28;20100;-54
2022/05/09 02:58:47;;;;;;;18.13;9.27;;;10.90;99.90;;;;;;5073880;28;20503;-54
2022/05/09 03:01:12;;;;;;;19.70;9.75;;;10.90;99.90;;;;;;5073725;28;20028;-54
2022/05/09 03:06:22;;;;;;;19.65;10.20;;;10.70;99.90;;;;;;5073091;28;20039;-54
2022/05/09 03:08:51;;;;;;;20.27;10.15;;;10.70;99.90;;;;;;5072889;28;20028;-54
2022/05/09 03:11:16;;;;;;;21.20;10.13;;;10.70;99.90;;;;;;5073969;28;20032;-54
2022/05/09 03:13:42;;;;;;;20.70;10.50;;;10.70;99.90;;;;;;5073412;28;20052;-54
2022/05/09 03:16:09;;;;;;;25.58;10.82;;;10.70;99.90;;;;;;5073294;28;20029;-54
2022/05/09 03:18:35;;;;;;;17.80;10.38;;;10.80;99.90;;;;;;5073206;28;20078;-54
2022/05/09 03:21:04;;;;;;;21.42;10.43;;;10.70;99.90;;;;;;5073948;28;20474;-54
2022/05/09 03:23:31;;;;;;;16.20;9.68;;;10.70;99.90;;;;;;5073244;28;20025;-53
2022/05/09 03:25:57;;;;;;;21.55;10.30;;;10.60;99.90;;;;;;5072774;28;20078;-54
2022/05/09 03:28:24;;;;;;;18.50;10.23;;;10.50;99.90;;;;;;5072939;28;20020;-54
2022/05/09 03:30:52;;;;;;;25.48;10.73;;;10.50;99.90;;;;;;5073069;28;20077;-53
2022/05/09 03:33:20;;;;;;;23.70;11.25;;;10.40;99.90;;;;;;5072735;28;20035;-54
2022/05/09 03:35:46;;;;;;;19.60;10.48;;;10.60;99.90;;;;;;5072701;28;20047;-53
2022/05/09 03:38:12;;;;;;;25.75;12.05;;;10.50;99.90;;;;;;5072910;28;20485;-53
2022/05/09 03:40:38;;;;;;;22.35;11.35;;;10.50;99.90;;;;;;5072393;28;20021;-53
2022/05/09 03:43:07;;;;;;;19.92;11.15;;;10.60;99.90;;;;;;5072443;28;20490;-53
2022/05/09 03:45:33;;;;;;;26.23;11.85;;;10.60;99.90;;;;;;5071619;28;20082;-53
2022/05/09 03:48:03;;;;;;;28.23;12.15;;;10.60;99.90;;;;;;5072082;28;20103;-53
2022/05/09 03:50:29;;;;;;;21.98;11.13;;;10.60;99.90;;;;;;5070969;28;20543;-53
2022/05/09 03:52:55;;;;;;;20.95;11.50;;;10.50;99.90;;;;;;5072513;28;20028;-53
2022/05/09 03:55:20;;;;;;;20.63;11.27;;;10.50;99.90;;;;;;5072121;28;20075;-53
2022/05/09 03:57:52;;;;;;;26.17;12.23;;;10.50;99.90;;;;;;5072474;28;20108;-54
2022/05/09 04:00:24;;;;;;;23.90;12.50;;;10.40;99.90;;;;;;5071940;28;20070;-53
2022/05/09 04:02:50;;;;;;;19.00;12.20;;;10.50;99.90;;;;;;5071793;28;20266;-55
2022/05/09 04:05:17;;;;;;;23.88;11.98;;;10.60;99.90;;;;;;5077038;28;20462;-53
2022/05/09 04:07:48;;;;;;;18.38;11.45;;;10.50;99.90;;;;;;5078984;28;20028;-53
2022/05/09 04:10:18;;;;;;;25.33;11.23;;;10.50;99.90;;;;;;5078370;28;20380;-54
2022/05/09 04:12:43;;;;;;;20.25;11.05;;;10.40;99.90;;;;;;5078957;28;20024;-54
2022/05/09 04:17:55;;;;;;;22.52;10.82;;;10.40;99.90;;;;;;5078385;28;20031;-53
2022/05/09 04:20:22;;;;;;;23.50;11.07;;;10.40;99.90;;;;;;5078499;28;20017;-53
2022/05/09 04:22:47;;;;;;;23.73;11.50;;;10.20;99.90;;;;;;5078427;28;20024;-54
2022/05/09 04:25:15;;;;;;;21.67;11.43;;;10.30;99.90;;;;;;5078704;28;20092;-54
2022/05/09 04:27:41;;;;;;;23.95;11.90;;;10.40;99.90;;;;;;5078550;28;20024;-54
2022/05/09 04:30:08;;;;;;;25.65;11.70;;;10.50;99.90;;;;;;5079189;28;20406;-54
2022/05/09 04:32:35;;;;;;;19.75;11.18;;;10.50;99.90;;;;;;5078864;28;20413;-53
2022/05/09 04:35:01;;;;;;;25.50;11.40;;;10.30;99.90;;;;;;5078750;28;20048;-53
2022/05/09 04:37:26;;;;;;;19.67;11.77;;;10.10;99.90;;;;;;5078505;28;20055;-53
2022/05/09 04:39:54;;;;;;;19.58;10.93;;;10.20;99.90;;;;;;5078412;28;20470;-53
2022/05/09 04:42:20;;;;;;;23.33;11.57;;;10.20;99.90;;;;;;5078576;28;20031;-52
2022/05/09 04:44:46;;;;;;;28.08;11.95;;;10.30;99.90;;;;;;5078454;28;20021;-53
2022/05/09 04:47:13;;;;;;;24.25;11.55;;;10.50;99.90;;;;;;5078587;28;20048;-52
2022/05/09 04:49:39;;;;;;;30.65;11.38;;;10.60;99.90;;;;;;5078425;28;20444;-53
2022/05/09 04:52:05;;;;;;;27.30;11.05;;;10.50;99.90;;;;;;5078854;28;20017;-53
2022/05/09 04:54:31;;;;;;;19.80;10.40;;;10.50;99.90;;;;;;5078152;28;20024;-53
2022/05/09 04:56:57;;;;;;;19.65;10.63;;;10.60;99.90;;;;;;5078124;28;20082;-54
2022/05/09 04:59:22;;;;;;;23.52;10.38;;;10.70;99.90;;;;;;5078365;28;20025;-53
2022/05/09 05:01:48;;;;;;;23.08;10.60;;;10.80;99.90;;;;;;5078744;28;20070;-53
2022/05/09 05:04:16;;;;;;;33.83;10.30;;;10.90;99.90;;;;;;5078024;28;20028;-58
2022/05/09 05:06:41;;;;;;;24.95;10.40;;;11.00;99.90;;;;;;5077200;28;20419;-54
2022/05/09 05:09:07;;;;;;;20.77;10.35;;;11.20;99.90;;;;;;5078121;28;20158;-54
2022/05/09 05:11:32;;;;;;;23.95;9.95;;;11.20;99.90;;;;;;5077304;28;20024;-53
2022/05/09 05:13:58;;;;;;;26.45;10.55;;;11.30;99.90;;;;;;5076743;28;20060;-53
2022/05/09 05:16:59;;;;;;;30.45;10.70;;;11.30;99.90;;;;;;5074788;28;20024;-53
2022/05/09 05:19:09;;;;;;;22.55;10.50;;;11.40;99.90;;;;;;5055080;28;20025;-53
2022/05/09 05:21:35;;;;;;;27.58;10.38;;;11.70;99.90;;;;;;5053846;28;20467;-53
2022/05/09 05:24:00;;;;;;;28.00;10.75;;;11.80;99.90;;;;;;5072137;28;20481;-53
2022/05/09 05:26:26;;;;;;;20.27;9.38;;;11.90;99.90;;;;;;5063274;28;20029;-53
2022/05/09 05:28:52;;;;;;;26.77;9.82;;;11.90;99.90;;;;;;5061497;28;20028;-53
2022/05/09 05:31:18;;;;;;;19.65;10.05;;;12.00;99.90;;;;;;5079307;28;20519;-53
2022/05/09 05:33:45;;;;;;;27.17;12.93;;;12.00;99.90;;;;;;5074855;28;20036;-53
2022/05/09 05:36:11;;;;;;;24.25;9.75;;;12.10;99.90;;;;;;5075172;28;20039;-53
2022/05/09 05:38:37;;;;;;;18.20;9.40;;;12.10;99.90;;;;;;5085620;28;20017;-53
2022/05/09 05:41:03;;;;;;;20.98;9.65;;;12.00;99.90;;;;;;5069392;28;20028;-53
2022/05/09 05:43:28;;;;;;;23.98;10.57;;;12.10;99.90;;;;;;5083925;28;20051;-53
2022/05/09 05:45:55;;;;;;;27.55;9.30;;;12.30;99.90;;;;;;5077329;28;20025;-53
2022/05/09 05:48:21;;;;;;;22.83;9.45;;;12.20;99.90;;;;;;5074760;28;20020;-54
2022/05/09 05:50:47;;;;;;;20.15;10.23;;;12.30;99.90;;;;;;5081359;28;20473;-53
2022/05/09 05:53:12;;;;;;;21.95;10.23;;;12.40;99.90;;;;;;5077717;28;20024;-53
2022/05/09 05:55:38;;;;;;;27.35;11.38;;;12.50;99.90;;;;;;5059649;28;20028;-54
2022/05/09 05:58:04;;;;;;;22.52;11.40;;;12.40;99.90;;;;;;5070939;28;20102;-54
2022/05/09 06:00:30;;;;;;;20.63;10.13;;;12.40;99.90;;;;;;5067272;28;20468;-53
2022/05/09 06:02:55;;;;;;;20.65;10.90;;;12.50;99.90;;;;;;5062998;28;20025;-53
2022/05/09 06:05:21;;;;;;;22.75;10.57;;;12.60;99.90;;;;;;5065226;28;20024;-53
2022/05/09 06:07:51;;;;;;;31.45;10.38;;;12.50;99.90;;;;;;5063836;28;20078;-53
2022/05/09 06:10:18;;;;;;;22.58;9.70;;;12.70;99.90;;;;;;5060698;28;20040;-53
2022/05/09 06:12:43;;;;;;;19.13;9.93;;;12.80;99.90;;;;;;5058841;28;20016;-53
2022/05/09 06:15:28;;;;;;;19.77;9.85;;;12.90;99.90;;;;;;5064586;28;20039;-53
2022/05/09 06:17:56;;;;;;;23.55;10.23;;;13.10;99.90;;;;;;5063076;28;20029;-53
2022/05/09 06:20:22;;;;;;;22.77;10.05;;;13.10;99.90;;;;;;5061786;28;20033;-53
2022/05/09 06:22:48;;;;;;;23.42;10.05;;;13.10;99.90;;;;;;5058759;28;20143;-53
2022/05/09 06:25:17;;;;;;;19.23;9.90;;;13.10;99.90;;;;;;5047190;28;20161;-53
2022/05/09 06:27:43;;;;;;;14.65;9.40;;;13.20;99.90;;;;;;5050600;28;20069;-53
2022/05/09 06:30:12;;;;;;;28.45;10.38;;;13.40;99.90;;;;;;5052597;28;20433;-53
2022/05/09 06:32:38;;;;;;;20.83;9.98;;;13.60;99.90;;;;;;5050034;28;20961;-54
2022/05/09 06:35:06;;;;;;;24.88;8.98;;;13.50;99.90;;;;;;5052249;28;20075;-54
2022/05/09 06:37:33;;;;;;;19.05;9.38;;;13.60;99.90;;;;;;5050568;28;20115;-54
2022/05/09 06:39:59;;;;;;;17.85;9.02;;;13.80;99.90;;;;;;5053297;28;20509;-54
2022/05/09 06:42:25;;;;;;;22.70;9.23;;;14.10;99.90;;;;;;5052088;28;20272;-54
2022/05/09 06:44:51;;;;;;;18.42;8.98;;;14.30;99.90;;;;;;5054626;28;20035;-54
2022/05/09 06:47:17;;;;;;;18.55;8.95;;;14.60;99.90;;;;;;5057192;28;20048;-54
2022/05/09 06:49:42;;;;;;;18.83;8.43;;;14.80;99.90;;;;;;5058000;28;20409;-54
2022/05/09 06:52:08;;;;;;;17.02;8.63;;;14.90;99.90;;;;;;5054212;28;20119;-54
2022/05/09 06:54:34;;;;;;;16.48;8.80;;;14.90;99.90;;;;;;5053867;28;20032;-54
2022/05/09 06:56:59;;;;;;;14.02;7.20;;;15.20;99.90;;;;;;5060075;28;20031;-54
2022/05/09 06:59:25;;;;;;;14.82;7.65;;;16.40;99.90;;;;;;5048274;28;20481;-55
2022/05/09 07:01:50;;;;;;;14.60;7.38;;;18.30;99.90;;;;;;5052240;28;20746;-54
2022/05/09 07:04:17;;;;;;;12.02;6.60;;;20.30;99.70;;;;;;5054441;28;20024;-55
2022/05/09 07:06:43;;;;;;;17.55;7.00;;;21.40;94.80;;;;;;5053434;28;20210;-55
2022/05/09 07:09:12;;;;;;;11.65;6.30;;;22.30;92.20;;;;;;5055035;28;20121;-56
2022/05/09 07:11:39;;;;;;;17.02;5.47;;;23.20;90.00;;;;;;5055056;28;20153;-55
2022/05/09 07:14:05;;;;;;;11.13;6.07;;;24.00;85.80;;;;;;5057324;28;20052;-55
2022/05/09 07:16:30;;;;;;;13.65;6.28;;;24.40;83.00;;;;;;5053022;28;20571;-57
2022/05/09 07:18:57;;;;;;;12.52;5.65;;;25.10;79.30;;;;;;5051436;28;20111;-57
2022/05/09 07:21:23;;;;;;;10.75;5.57;;;25.30;77.60;;;;;;5060971;28;20035;-57
2022/05/09 07:23:49;;;;;;;14.90;6.20;;;25.50;75.80;;;;;;5054389;28;20020;-57
2022/05/09 07:26:15;;;;;;;10.93;5.70;;;26.70;74.30;;;;;;5060699;28;20111;-57
2022/05/09 07:28:42;;;;;;;12.05;5.88;;;27.10;72.10;;;;;;5063071;28;20389;-56
2022/05/09 07:31:08;;;;;;;11.00;5.95;;;27.10;70.60;;;;;;5058039;28;20021;-56
2022/05/09 07:33:35;;;;;;;12.73;5.28;;;27.40;68.90;;;;;;5061317;28;20163;-56
2022/05/09 07:36:02;;;;;;;10.77;4.60;;;27.40;68.50;;;;;;5058687;28;20513;-56
2022/05/09 07:38:27;;;;;;;14.45;5.85;;;27.30;68.10;;;;;;5061995;28;20038;-57
2022/05/09 07:40:53;;;;;;;12.98;5.88;;;28.60;65.40;;;;;;5055955;28;20502;-57
2022/05/09 07:43:24;;;;;;;11.85;5.18;;;28.70;63.20;;;;;;5063883;28;20021;-57
2022/05/09 07:45:52;;;;;;;10.43;5.20;;;27.50;64.70;;;;;;5058411;28;20035;-57
2022/05/09 07:48:21;;;;;;;13.48;5.13;;;27.50;64.60;;;;;;5059433;28;20149;-56
2022/05/09 07:50:48;;;;;;;11.65;5.07;;;27.10;65.40;;;;;;5055928;28;20028;-57
2022/05/09 07:53:30;;;;;;;13.77;5.80;;;26.40;66.70;;;;;;5058884;28;20525;-57
2022/05/09 07:55:56;;;;;;;11.68;5.60;;;26.20;67.60;;;;;;5058590;28;20710;-57
2022/05/09 07:58:23;;;;;;;15.15;5.10;;;26.60;68.40;;;;;;5051971;28;20737;-57
2022/05/09 08:00:48;;;;;;;14.70;5.75;;;26.90;67.60;;;;;;5056669;28;20482;-57
2022/05/09 08:03:18;;;;;;;12.55;5.20;;;27.20;66.20;;;;;;5048675;28;20043;-57
2022/05/09 08:05:44;;;;;;;13.77;5.30;;;27.70;63.60;;;;;;5055897;28;20550;-57
2022/05/09 08:08:10;;;;;;;11.95;5.10;;;27.50;63.40;;;;;;5060574;28;20029;-57
2022/05/09 08:10:37;;;;;;;12.63;5.25;;;28.10;62.80;;;;;;5055223;28;20090;-57
2022/05/09 08:13:04;;;;;;;17.63;5.15;;;28.50;61.50;;;;;;5052672;28;20029;-58
2022/05/09 08:15:31;;;;;;;14.98;5.60;;;28.30;61.60;;;;;;5051301;28;20505;-57
2022/05/09 08:17:58;;;;;;;19.23;4.93;;;29.10;60.00;;;;;;5052888;28;20047;-58
2022/05/09 08:20:24;;;;;;;15.68;4.63;;;29.80;59.00;;;;;;5057628;28;20489;-58
2022/05/09 08:23:02;;;;;;;28.27;4.70;;;29.10;59.00;;;;;;5054564;28;20379;-58
2022/05/09 08:25:28;;;;;;;21.52;4.88;;;28.50;60.70;;;;;;5052588;28;20037;-58
2022/05/09 08:27:53;;;;;;;10.60;3.92;;;29.00;59.50;;;;;;5055442;28;20606;-58
2022/05/09 08:30:20;;;;;;;10.98;4.72;;;28.70;58.90;;;;;;5045626;28;20597;-58
2022/05/09 08:32:45;;;;;;;12.40;4.05;;;28.70;60.30;;;;;;5053252;28;20024;-58
2022/05/09 08:35:13;;;;;;;8.68;4.25;;;29.30;59.40;;;;;;5055170;28;20105;-58
2022/05/09 08:37:39;;;;;;;11.05;4.15;;;29.10;59.60;;;;;;5048098;28;20032;-58
2022/05/09 08:40:05;;;;;;;11.43;4.53;;;30.10;58.50;;;;;;5050005;28;20036;-58
2022/05/09 08:42:45;;;;;;;8.70;3.95;;;30.40;56.60;;;;;;5052108;28;20513;-58
2022/05/09 08:45:13;;;;;;;7.95;3.83;;;29.60;58.40;;;;;;5058071;28;20028;-58
2022/05/09 08:48:05;;;;;;;11.93;4.18;;;28.90;58.20;;;;;;5057433;28;20052;-58
2022/05/09 08:50:55;;;;;;;13.90;4.50;;;28.80;58.70;;;;;;5058297;28;20028;-58
2022/05/09 08:53:24;;;;;;;12.07;4.38;;;29.00;59.30;;;;;;5059645;28;20025;-58
2022/05/09 08:55:51;;;;;;;8.30;3.83;;;29.60;57.90;;;;;;5060740;28;20044;-58
2022/05/09 08:58:39;;;;;;;7.15;3.22;;;28.90;58.60;;;;;;5059650;28;20036;-58
2022/05/09 09:01:19;;;;;;;12.07;3.75;;;29.60;57.80;;;;;;5058727;28;20028;-58
2022/05/09 09:04:03;;;;;;;11.18;3.10;;;28.60;57.30;;;;;;5058317;28;20054;-58
2022/05/09 09:06:48;;;;;;;6.97;2.55;;;28.40;58.20;;;;;;5062792;28;20527;-58
2022/05/09 09:09:30;;;;;;;8.32;2.80;;;28.50;55.60;;;;;;5060113;28;20028;-58
2022/05/09 09:12:10;;;;;;;13.32;3.05;;;27.90;57.30;;;;;;5055092;28;20034;-58
2022/05/09 09:15:05;;;;;;;5.32;2.47;;;28.30;57.10;;;;;;5059777;28;20409;-58
2022/05/09 09:18:04;;;;;;;6.85;2.45;;;28.80;56.20;;;;;;5053631;28;20072;-58
2022/05/09 09:20:51;;;;;;;5.82;2.67;;;28.30;56.10;;;;;;5062272;28;20386;-58
2022/05/09 09:23:57;;;;;;;6.60;2.63;;;27.40;57.10;;;;;;5062200;28;20064;-58
2022/05/09 09:26:45;;;;;;;7.95;2.42;;;28.10;55.60;;;;;;5060377;28;20079;-58
2022/05/09 09:29:25;;;;;;;7.57;2.65;;;28.30;55.30;;;;;;5052232;28;20036;-58
2022/05/09 09:32:03;;;;;;;8.25;2.33;;;28.40;54.90;;;;;;5052975;28;20027;-58
2022/05/09 09:34:50;;;;;;;8.90;2.83;;;28.30;55.50;;;;;;5056571;28;20048;-58
2022/05/09 09:37:38;;;;;;;9.48;2.25;;;28.10;55.70;;;;;;5063859;28;20044;-58
2022/05/09 09:40:06;;;;;;;6.93;2.10;;;28.70;55.40;;;;;;5060527;28;20063;-58
2022/05/09 09:42:32;;;;;;;3.80;1.98;;;29.40;55.40;;;;;;5061074;28;20048;-58
2022/05/09 09:45:03;;;;;;;5.93;2.05;;;29.20;54.50;;;;;;5055779;28;20072;-58
2022/05/09 09:47:30;;;;;;;6.35;2.17;;;29.30;53.50;;;;;;5049852;28;20067;-58
2022/05/09 09:50:16;;;;;;;8.85;2.25;;;29.70;53.70;;;;;;5055594;28;20409;-58
2022/05/09 09:52:54;;;;;;;6.80;2.03;;;29.60;52.70;;;;;;5056255;28;20719;-59
2022/05/09 09:55:29;;;;;;;6.72;2.13;;;29.40;54.70;;;;;;5054609;28;20060;-58
2022/05/09 09:57:56;;;;;;;6.03;2.40;;;29.00;53.20;;;;;;5054200;28;20029;-58
2022/05/09 10:00:34;;;;;;;9.00;2.28;;;28.90;53.60;;;;;;5057777;28;20044;-58
2022/05/09 10:03:38;;;;;;;6.88;2.40;;;29.40;53.90;;;;;;5055080;28;20047;-58
2022/05/09 10:06:14;;;;;;;6.13;1.88;;;29.40;54.10;;;;;;5038527;28;20084;-58
2022/05/09 10:08:40;;;;;;;17.80;2.90;;;29.80;53.70;;;;;;5054630;28;20565;-57
2022/05/09 10:11:08;;;;;;;9.85;2.38;;;29.90;52.80;;;;;;5062993;28;20020;-58
2022/05/09 10:13:48;;;;;;;10.20;2.85;;;30.00;52.50;;;;;;5061297;28;20021;-57
2022/05/09 10:16:31;;;;;;;5.97;2.50;;;29.60;52.50;;;;;;5055797;28;20120;-58
2022/05/09 10:18:59;;;;;;;7.55;2.40;;;29.30;53.40;;;;;;5060312;28;20525;-58
2022/05/09 10:24:50;;;;;;;11.98;2.40;;;29.70;53.70;;;;;;5054832;28;20112;-58
2022/05/09 10:27:22;;;;;;;11.40;2.67;;;29.80;53.60;;;;;;5051985;28;20047;-57
2022/05/09 10:29:50;;;;;;;8.50;2.22;;;29.80;52.70;;;;;;5053619;28;20548;-58
2022/05/09 10:32:36;;;;;;;13.27;3.05;;;28.90;53.80;;;;;;5046261;28;20039;-57
2022/05/09 10:35:10;;;;;;;9.60;2.80;;;29.90;52.60;;;;;;5055255;28;20040;-57
2022/05/09 10:37:40;;;;;;;17.25;2.88;;;29.60;53.30;;;;;;5056430;28;20035;-58
2022/05/09 10:40:13;;;;;;;7.60;2.38;;;29.70;53.80;;;;;;5057712;28;20039;-58
2022/05/09 10:42:46;;;;;;;7.90;2.10;;;30.10;52.80;;;;;;5051935;28;20036;-58
2022/05/09 10:45:16;;;;;;;7.70;2.60;;;31.30;51.80;;;;;;5056612;28;20036;-58
2022/05/09 10:48:10;;;;;;;7.60;2.75;;;30.40;52.60;;;;;;5056393;28;20035;-58
2022/05/09 10:51:12;;;;;;;10.23;2.78;;;28.70;53.50;;;;;;5058326;28;20029;-57
2022/05/09 10:53:44;;;;;;;;;;;28.60;54.40;;;;;;5061655;28;20033;-58
2022/05/09 10:56:28;;;;;;;14.13;3.10;;;29.50;53.10;;;;;;5055401;28;19912;-58
2022/05/09 10:59:01;;;;;;;9.25;2.75;;;29.50;53.20;;;;;;5056303;28;20033;-58
2022/05/09 11:01:32;;;;;;;20.73;2.60;;;29.30;53.00;;;;;;5060466;28;20206;-58
2022/05/09 11:03:59;;;;;;;12.77;2.95;;;29.40;53.50;;;;;;5059662;28;20032;-59
2022/05/09 11:06:40;;;;;;;5.43;2.55;;;30.80;52.90;;;;;;5059529;28;20040;-57
2022/05/09 11:09:14;;;;;;;7.67;2.70;;;30.40;53.00;;;;;;5052075;28;20028;-57
2022/05/09 11:11:52;;;;;;;5.63;2.70;;;29.60;52.90;;;;;;5057232;28;20119;-57
2022/05/09 11:14:58;;;;;;;10.93;3.53;;;29.70;53.50;;;;;;5048184;28;20028;-58
2022/05/09 11:17:40;;;;;;;5.70;2.83;;;29.90;52.60;;;;;;5053812;28;20131;-58
2022/05/09 11:20:28;;;;;;;9.15;3.35;;;30.40;52.60;;;;;;5057634;28;20025;-58
2022/05/09 11:23:19;;;;;;;25.90;3.20;;;30.80;51.90;;;;;;5060321;28;20033;-58
2022/05/09 11:26:06;;;;;;;8.13;3.17;;;31.50;52.20;;;;;;5059804;28;20074;-58
2022/05/09 11:28:41;;;;;;;11.85;3.72;;;30.60;52.20;;;;;;5053431;28;20033;-58
2022/05/09 11:31:09;;;;;;;5.55;2.92;;;30.40;52.50;;;;;;5058853;28;20042;-57
2022/05/09 11:33:56;;;;;;;6.53;3.53;;;30.00;53.80;;;;;;5056666;28;20028;-57
2022/05/09 11:36:36;;;;;;;11.73;3.38;;;29.40;54.10;;;;;;5055953;28;20167;-57
2022/05/09 11:39:11;;;;;;;13.80;4.15;;;29.40;54.80;;;;;;5056636;28;20028;-57
2022/05/09 11:41:56;;;;;;;11.52;4.00;;;29.70;53.80;;;;;;5061494;28;20106;-57
2022/05/09 11:44:34;;;;;;;10.90;4.07;;;28.70;55.10;;;;;;5057100;28;20651;-56
2022/05/09 11:47:22;;;;;;;8.73;3.45;;;29.20;54.40;;;;;;5053227;28;20032;-57
2022/05/09 11:50:16;;;;;;;7.10;3.22;;;30.80;52.60;;;;;;5053207;28;20459;-57
2022/05/09 11:52:44;;;;;;;9.48;3.25;;;32.30;52.00;;;;;;5055915;28;20043;-57
2022/05/09 11:55:18;;;;;;;8.90;3.50;;;33.10;50.10;;;;;;5053628;28;20464;-56
2022/05/09 11:57:48;;;;;;;11.70;3.33;;;32.80;50.30;;;;;;5054739;28;20379;-57
2022/05/09 12:00:39;;;;;;;16.08;3.65;;;33.60;50.00;;;;;;5059822;28;20033;-57
2022/05/09 12:03:06;;;;;;;;;;;33.40;49.60;;;;;;5054571;28;20555;-57
2022/05/09 12:05:31;;;;;;;9.55;4.47;;;33.00;50.90;;;;;;5058659;28;19924;-56
2022/05/09 12:08:03;;;;;;;10.90;4.40;;;32.10;51.10;;;;;;5060693;28;20612;-56
2022/05/09 12:10:35;;;;;;;9.70;4.35;;;29.80;53.80;;;;;;5053920;28;20117;-57
2022/05/09 12:13:06;;;;;;;10.93;4.38;;;29.90;54.50;;;;;;5050482;28;20453;-57
2022/05/09 12:15:33;;;;;;;11.70;4.80;;;29.60;55.50;;;;;;5059978;28;20472;-57
2022/05/09 12:17:58;;;;;;;4.80;3.83;;;28.90;56.50;;;;;;5054947;28;20283;-57
2022/05/09 12:20:27;;;;;;;8.40;4.13;;;28.10;58.80;;;;;;5052467;28;20035;-57
2022/05/09 12:22:57;;;;;;;7.70;4.70;;;28.90;57.70;;;;;;5053672;28;20062;-57
2022/05/09 12:25:41;;;;;;;9.43;5.07;;;28.80;57.10;;;;;;5062620;28;20037;-57
2022/05/09 12:28:22;;;;;;;7.60;4.68;;;28.50;56.90;;;;;;5063263;28;20028;-57
2022/05/09 12:30:47;;;;;;;7.72;4.55;;;28.60;58.00;;;;;;5054845;28;20057;-57
2022/05/09 12:33:35;;;;;;;8.15;4.60;;;28.40;57.80;;;;;;5059084;28;20566;-57
2022/05/09 12:36:08;;;;;;;7.18;5.38;;;28.10;58.40;;;;;;5061078;28;20056;-57
2022/05/09 12:38:37;;;;;;;6.35;3.90;;;28.50;57.70;;;;;;5060356;28;20497;-57
2022/05/09 12:41:11;;;;;;;5.63;4.03;;;27.80;59.10;;;;;;5057454;28;20039;-57
2022/05/09 12:43:40;;;;;;;9.38;4.00;;;28.30;59.30;;;;;;5054201;28;20036;-57
2022/05/09 12:46:10;;;;;;;16.75;4.60;;;28.80;57.80;;;;;;5056640;28;20244;-57
2022/05/09 12:48:39;;;;;;;9.55;4.85;;;29.10;57.10;;;;;;5061104;28;20024;-57
2022/05/09 12:51:08;;;;;;;8.98;4.40;;;28.80;57.50;;;;;;5062147;28;20036;-57
2022/05/09 12:53:35;;;;;;;9.43;5.10;;;28.10;58.70;;;;;;5060797;28;20063;-56
2022/05/09 12:56:10;;;;;;;9.43;4.35;;;27.70;59.40;;;;;;5061972;28;20106;-56
2022/05/09 12:58:39;;;;;;;10.77;4.57;;;28.40;59.10;;;;;;5063432;28;20035;-56
2022/05/09 13:01:32;;;;;;;12.25;4.85;;;29.10;58.20;;;;;;5059850;28;20056;-56
2022/05/09 13:04:07;;;;;;;6.65;3.92;;;30.10;57.20;;;;;;5060889;28;20046;-57
2022/05/09 13:06:47;;;;;;;8.43;4.65;;;30.50;56.90;;;;;;5057160;28;20070;-57